sensor_id;sensor_type;location;lat;lon;timestamp;P1;durP1;ratioP1;P2;durP2;ratioP2
45686;SDS011;31399;51.176;7.776;2022-08-19T00:01:41;28.13;;;17.92;;
45686;SDS011;31399;51.176;7.776;2022-08-19T00:04:10;28.67;;;17.50;;
45686;SDS011;31399;51.176;7.776;2022-08-19T00:06:39;29.67;;;17.08;;
45686;SDS011;31399;51.176;7.776;2022-08-19T00:09:08;24.20;;;15.82;;
45686;SDS011;31399;51.176;7.776;2022-08-19T00:11:37;30.00;;;17.20;;
45686;SDS011;31399;51.176;7.776;2022-08-19T00:14:05;27.70;;;17.23;;
45686;SDS011;31399;51.176;7.776;2022-08-19T00:16:32;28.15;;;16.77;;
45686;SDS011;31399;51.176;7.776;2022-08-19T00:18:59;30.65;;;18.50;;
45686;SDS011;31399;51.176;7.776;2022-08-19T00:21:25;31.58;;;19.35;;
45686;SDS011;31399;51.176;7.776;2022-08-19T00:23:53;32.50;;;19.67;;
45686;SDS011;31399;51.176;7.776;2022-08-19T00:26:21;30.75;;;17.83;;
45686;SDS011;31399;51.176;7.776;2022-08-19T00:28:47;30.88;;;18.00;;
45686;SDS011;31399;51.176;7.776;2022-08-19T00:31:14;32.28;;;18.58;;
45686;SDS011;31399;51.176;7.776;2022-08-19T00:33:41;29.50;;;16.70;;
45686;SDS011;31399;51.176;7.776;2022-08-19T00:36:09;26.88;;;16.95;;
45686;SDS011;31399;51.176;7.776;2022-08-19T00:38:36;25.77;;;16.00;;
45686;SDS011;31399;51.176;7.776;2022-08-19T00:41:05;27.05;;;16.38;;
45686;SDS011;31399;51.176;7.776;2022-08-19T00:43:32;28.13;;;16.65;;
45686;SDS011;31399;51.176;7.776;2022-08-19T00:45:59;29.95;;;17.90;;
45686;SDS011;31399;51.176;7.776;2022-08-19T00:48:27;29.52;;;18.17;;
45686;SDS011;31399;51.176;7.776;2022-08-19T00:50:54;32.88;;;18.73;;
45686;SDS011;31399;51.176;7.776;2022-08-19T00:53:22;32.13;;;18.98;;
45686;SDS011;31399;51.176;7.776;2022-08-19T00:55:51;28.92;;;18.05;;
45686;SDS011;31399;51.176;7.776;2022-08-19T00:58:20;29.40;;;17.40;;
45686;SDS011;31399;51.176;7.776;2022-08-19T01:00:49;29.83;;;18.35;;
45686;SDS011;31399;51.176;7.776;2022-08-19T01:03:17;26.35;;;16.55;;
45686;SDS011;31399;51.176;7.776;2022-08-19T01:05:45;29.33;;;17.98;;
45686;SDS011;31399;51.176;7.776;2022-08-19T01:08:14;24.95;;;15.45;;
45686;SDS011;31399;51.176;7.776;2022-08-19T01:10:52;27.80;;;15.35;;
45686;SDS011;31399;51.176;7.776;2022-08-19T01:13:25;26.42;;;15.02;;
45686;SDS011;31399;51.176;7.776;2022-08-19T01:16:09;27.42;;;16.83;;
45686;SDS011;31399;51.176;7.776;2022-08-19T01:18:38;26.40;;;16.05;;
45686;SDS011;31399;51.176;7.776;2022-08-19T01:21:42;21.95;;;14.90;;
45686;SDS011;31399;51.176;7.776;2022-08-19T01:24:04;30.27;;;16.90;;
45686;SDS011;31399;51.176;7.776;2022-08-19T01:26:31;28.67;;;16.65;;
45686;SDS011;31399;51.176;7.776;2022-08-19T01:28:58;23.48;;;15.50;;
45686;SDS011;31399;51.176;7.776;2022-08-19T01:31:28;27.30;;;14.68;;
45686;SDS011;31399;51.176;7.776;2022-08-19T01:33:59;25.65;;;14.88;;
45686;SDS011;31399;51.176;7.776;2022-08-19T01:36:28;23.05;;;15.13;;
45686;SDS011;31399;51.176;7.776;2022-08-19T01:39:00;23.48;;;14.70;;
45686;SDS011;31399;51.176;7.776;2022-08-19T01:41:29;23.27;;;15.25;;
45686;SDS011;31399;51.176;7.776;2022-08-19T01:43:55;23.42;;;14.82;;
45686;SDS011;31399;51.176;7.776;2022-08-19T01:46:42;21.60;;;13.82;;
45686;SDS011;31399;51.176;7.776;2022-08-19T01:49:09;19.65;;;11.77;;
45686;SDS011;31399;51.176;7.776;2022-08-19T01:51:36;20.10;;;12.23;;
45686;SDS011;31399;51.176;7.776;2022-08-19T01:54:06;21.10;;;12.27;;
45686;SDS011;31399;51.176;7.776;2022-08-19T01:56:34;19.35;;;11.70;;
45686;SDS011;31399;51.176;7.776;2022-08-19T01:59:03;16.95;;;11.45;;
45686;SDS011;31399;51.176;7.776;2022-08-19T02:01:35;22.52;;;13.23;;
45686;SDS011;31399;51.176;7.776;2022-08-19T02:04:02;19.92;;;12.35;;
45686;SDS011;31399;51.176;7.776;2022-08-19T02:06:29;22.38;;;13.93;;
45686;SDS011;31399;51.176;7.776;2022-08-19T02:08:56;17.85;;;12.15;;
45686;SDS011;31399;51.176;7.776;2022-08-19T02:11:27;21.63;;;11.93;;
45686;SDS011;31399;51.176;7.776;2022-08-19T02:13:57;20.17;;;13.43;;
45686;SDS011;31399;51.176;7.776;2022-08-19T02:16:24;18.35;;;11.27;;
45686;SDS011;31399;51.176;7.776;2022-08-19T02:18:51;16.92;;;10.40;;
45686;SDS011;31399;51.176;7.776;2022-08-19T02:21:18;16.05;;;10.40;;
45686;SDS011;31399;51.176;7.776;2022-08-19T02:23:46;19.38;;;11.23;;
45686;SDS011;31399;51.176;7.776;2022-08-19T02:26:13;15.05;;;10.23;;
45686;SDS011;31399;51.176;7.776;2022-08-19T02:28:40;13.65;;;9.40;;
45686;SDS011;31399;51.176;7.776;2022-08-19T02:31:11;15.38;;;10.23;;
45686;SDS011;31399;51.176;7.776;2022-08-19T02:33:39;14.05;;;9.43;;
45686;SDS011;31399;51.176;7.776;2022-08-19T02:36:06;14.00;;;10.00;;
45686;SDS011;31399;51.176;7.776;2022-08-19T02:38:34;15.50;;;10.98;;
45686;SDS011;31399;51.176;7.776;2022-08-19T02:41:02;19.60;;;11.63;;
45686;SDS011;31399;51.176;7.776;2022-08-19T02:43:33;18.20;;;11.55;;
45686;SDS011;31399;51.176;7.776;2022-08-19T02:46:20;20.08;;;12.13;;
45686;SDS011;31399;51.176;7.776;2022-08-19T02:48:48;20.52;;;12.82;;
45686;SDS011;31399;51.176;7.776;2022-08-19T02:51:22;17.92;;;12.40;;
45686;SDS011;31399;51.176;7.776;2022-08-19T02:53:50;18.98;;;11.80;;
45686;SDS011;31399;51.176;7.776;2022-08-19T02:56:17;18.10;;;11.82;;
45686;SDS011;31399;51.176;7.776;2022-08-19T02:58:44;19.27;;;12.80;;
45686;SDS011;31399;51.176;7.776;2022-08-19T03:01:18;23.05;;;13.80;;
45686;SDS011;31399;51.176;7.776;2022-08-19T03:03:47;24.00;;;13.90;;
45686;SDS011;31399;51.176;7.776;2022-08-19T03:06:14;17.42;;;11.73;;
45686;SDS011;31399;51.176;7.776;2022-08-19T03:08:42;22.23;;;12.50;;
45686;SDS011;31399;51.176;7.776;2022-08-19T03:11:14;26.10;;;13.25;;
45686;SDS011;31399;51.176;7.776;2022-08-19T03:13:59;21.40;;;13.65;;
45686;SDS011;31399;51.176;7.776;2022-08-19T03:16:27;20.80;;;12.35;;
45686;SDS011;31399;51.176;7.776;2022-08-19T03:18:58;22.58;;;10.82;;
45686;SDS011;31399;51.176;7.776;2022-08-19T03:21:30;17.85;;;10.20;;
45686;SDS011;31399;51.176;7.776;2022-08-19T03:23:59;18.48;;;10.07;;
45686;SDS011;31399;51.176;7.776;2022-08-19T03:26:27;17.17;;;10.13;;
45686;SDS011;31399;51.176;7.776;2022-08-19T03:28:54;17.65;;;10.82;;
45686;SDS011;31399;51.176;7.776;2022-08-19T03:31:24;18.38;;;11.85;;
45686;SDS011;31399;51.176;7.776;2022-08-19T03:34:14;22.65;;;12.25;;
45686;SDS011;31399;51.176;7.776;2022-08-19T03:36:46;22.23;;;13.30;;
45686;SDS011;31399;51.176;7.776;2022-08-19T03:39:13;22.88;;;12.75;;
45686;SDS011;31399;51.176;7.776;2022-08-19T03:41:41;20.77;;;11.43;;
45686;SDS011;31399;51.176;7.776;2022-08-19T03:44:14;16.17;;;10.70;;
45686;SDS011;31399;51.176;7.776;2022-08-19T03:46:47;17.55;;;10.90;;
45686;SDS011;31399;51.176;7.776;2022-08-19T03:49:15;19.00;;;10.45;;
45686;SDS011;31399;51.176;7.776;2022-08-19T03:51:43;13.93;;;9.38;;
45686;SDS011;31399;51.176;7.776;2022-08-19T03:54:12;19.70;;;11.00;;
45686;SDS011;31399;51.176;7.776;2022-08-19T03:56:40;15.75;;;10.90;;
45686;SDS011;31399;51.176;7.776;2022-08-19T03:59:09;18.85;;;9.93;;
45686;SDS011;31399;51.176;7.776;2022-08-19T04:01:39;17.08;;;10.48;;
45686;SDS011;31399;51.176;7.776;2022-08-19T04:04:06;15.43;;;10.25;;
45686;SDS011;31399;51.176;7.776;2022-08-19T04:06:35;15.98;;;9.90;;
45686;SDS011;31399;51.176;7.776;2022-08-19T04:09:06;17.65;;;11.10;;
45686;SDS011;31399;51.176;7.776;2022-08-19T04:11:37;14.30;;;9.38;;
45686;SDS011;31399;51.176;7.776;2022-08-19T04:14:17;15.05;;;10.27;;
45686;SDS011;31399;51.176;7.776;2022-08-19T04:16:46;17.83;;;10.23;;
45686;SDS011;31399;51.176;7.776;2022-08-19T04:19:14;19.80;;;11.68;;
45686;SDS011;31399;51.176;7.776;2022-08-19T04:21:43;27.25;;;12.73;;
45686;SDS011;31399;51.176;7.776;2022-08-19T04:24:13;21.50;;;11.95;;
45686;SDS011;31399;51.176;7.776;2022-08-19T04:26:41;33.72;;;13.90;;
45686;SDS011;31399;51.176;7.776;2022-08-19T04:29:11;29.27;;;14.57;;
45686;SDS011;31399;51.176;7.776;2022-08-19T04:31:40;20.55;;;11.52;;
45686;SDS011;31399;51.176;7.776;2022-08-19T04:34:10;17.92;;;10.20;;
45686;SDS011;31399;51.176;7.776;2022-08-19T04:36:39;17.73;;;10.68;;
45686;SDS011;31399;51.176;7.776;2022-08-19T04:39:08;17.48;;;10.48;;
45686;SDS011;31399;51.176;7.776;2022-08-19T04:41:38;17.20;;;10.00;;
45686;SDS011;31399;51.176;7.776;2022-08-19T04:44:23;14.27;;;9.10;;
45686;SDS011;31399;51.176;7.776;2022-08-19T04:46:50;13.48;;;8.70;;
45686;SDS011;31399;51.176;7.776;2022-08-19T04:49:18;12.45;;;7.97;;
45686;SDS011;31399;51.176;7.776;2022-08-19T04:51:48;15.32;;;9.00;;
45686;SDS011;31399;51.176;7.776;2022-08-19T04:54:17;14.15;;;9.75;;
45686;SDS011;31399;51.176;7.776;2022-08-19T04:57:04;15.90;;;10.00;;
45686;SDS011;31399;51.176;7.776;2022-08-19T04:59:33;16.17;;;10.18;;
45686;SDS011;31399;51.176;7.776;2022-08-19T05:02:00;17.63;;;10.77;;
45686;SDS011;31399;51.176;7.776;2022-08-19T05:04:27;15.65;;;10.05;;
45686;SDS011;31399;51.176;7.776;2022-08-19T05:06:54;15.40;;;9.68;;
45686;SDS011;31399;51.176;7.776;2022-08-19T05:09:27;17.75;;;9.15;;
45686;SDS011;31399;51.176;7.776;2022-08-19T05:12:14;13.77;;;8.45;;
45686;SDS011;31399;51.176;7.776;2022-08-19T05:14:42;11.73;;;7.57;;
45686;SDS011;31399;51.176;7.776;2022-08-19T05:17:09;14.32;;;9.98;;
45686;SDS011;31399;51.176;7.776;2022-08-19T05:19:53;12.00;;;8.38;;
45686;SDS011;31399;51.176;7.776;2022-08-19T05:22:40;15.55;;;10.00;;
45686;SDS011;31399;51.176;7.776;2022-08-19T05:25:09;18.30;;;10.35;;
45686;SDS011;31399;51.176;7.776;2022-08-19T05:27:39;15.45;;;9.88;;
45686;SDS011;31399;51.176;7.776;2022-08-19T05:30:07;12.63;;;8.45;;
45686;SDS011;31399;51.176;7.776;2022-08-19T05:32:34;13.30;;;7.70;;
45686;SDS011;31399;51.176;7.776;2022-08-19T05:35:01;11.48;;;8.95;;
45686;SDS011;31399;51.176;7.776;2022-08-19T05:37:27;14.70;;;9.38;;
45686;SDS011;31399;51.176;7.776;2022-08-19T05:39:54;14.27;;;8.43;;
45686;SDS011;31399;51.176;7.776;2022-08-19T05:42:21;11.60;;;8.07;;
45686;SDS011;31399;51.176;7.776;2022-08-19T05:44:49;13.23;;;7.53;;
45686;SDS011;31399;51.176;7.776;2022-08-19T05:47:16;15.15;;;9.10;;
45686;SDS011;31399;51.176;7.776;2022-08-19T05:49:45;11.30;;;7.93;;
45686;SDS011;31399;51.176;7.776;2022-08-19T05:52:12;12.48;;;8.02;;
45686;SDS011;31399;51.176;7.776;2022-08-19T05:54:46;15.52;;;8.50;;
45686;SDS011;31399;51.176;7.776;2022-08-19T05:59:43;11.75;;;8.05;;
45686;SDS011;31399;51.176;7.776;2022-08-19T06:02:12;10.55;;;8.07;;
45686;SDS011;31399;51.176;7.776;2022-08-19T06:04:40;11.77;;;8.40;;
45686;SDS011;31399;51.176;7.776;2022-08-19T06:07:09;14.27;;;8.80;;
45686;SDS011;31399;51.176;7.776;2022-08-19T06:09:38;10.77;;;7.68;;
45686;SDS011;31399;51.176;7.776;2022-08-19T06:12:05;13.50;;;7.82;;
45686;SDS011;31399;51.176;7.776;2022-08-19T06:14:33;7.72;;;6.43;;
45686;SDS011;31399;51.176;7.776;2022-08-19T06:17:07;14.50;;;8.32;;
45686;SDS011;31399;51.176;7.776;2022-08-19T06:19:34;12.52;;;7.60;;
45686;SDS011;31399;51.176;7.776;2022-08-19T06:22:06;11.13;;;7.88;;
45686;SDS011;31399;51.176;7.776;2022-08-19T06:24:33;10.05;;;7.15;;
45686;SDS011;31399;51.176;7.776;2022-08-19T06:27:02;13.43;;;7.95;;
45686;SDS011;31399;51.176;7.776;2022-08-19T06:29:32;17.92;;;8.20;;
45686;SDS011;31399;51.176;7.776;2022-08-19T06:31:59;14.65;;;7.88;;
45686;SDS011;31399;51.176;7.776;2022-08-19T06:34:28;9.55;;;6.93;;
45686;SDS011;31399;51.176;7.776;2022-08-19T06:36:56;9.00;;;6.20;;
45686;SDS011;31399;51.176;7.776;2022-08-19T06:39:26;10.77;;;6.55;;
45686;SDS011;31399;51.176;7.776;2022-08-19T06:41:55;10.75;;;6.93;;
45686;SDS011;31399;51.176;7.776;2022-08-19T06:44:25;11.80;;;6.25;;
45686;SDS011;31399;51.176;7.776;2022-08-19T06:46:57;6.93;;;4.97;;
45686;SDS011;31399;51.176;7.776;2022-08-19T06:49:23;8.55;;;4.72;;
45686;SDS011;31399;51.176;7.776;2022-08-19T06:51:51;7.88;;;4.57;;
45686;SDS011;31399;51.176;7.776;2022-08-19T06:54:18;5.70;;;4.85;;
45686;SDS011;31399;51.176;7.776;2022-08-19T06:56:45;6.85;;;5.70;;
45686;SDS011;31399;51.176;7.776;2022-08-19T06:59:14;7.60;;;4.40;;
45686;SDS011;31399;51.176;7.776;2022-08-19T07:01:45;7.25;;;4.78;;
45686;SDS011;31399;51.176;7.776;2022-08-19T07:04:16;6.88;;;4.72;;
45686;SDS011;31399;51.176;7.776;2022-08-19T07:06:48;6.22;;;3.63;;
45686;SDS011;31399;51.176;7.776;2022-08-19T07:09:20;6.38;;;4.82;;
45686;SDS011;31399;51.176;7.776;2022-08-19T07:11:48;9.10;;;4.35;;
45686;SDS011;31399;51.176;7.776;2022-08-19T07:14:17;7.88;;;5.78;;
45686;SDS011;31399;51.176;7.776;2022-08-19T07:16:46;7.10;;;5.15;;
45686;SDS011;31399;51.176;7.776;2022-08-19T07:19:14;10.75;;;5.93;;
45686;SDS011;31399;51.176;7.776;2022-08-19T07:21:45;13.05;;;6.18;;
45686;SDS011;31399;51.176;7.776;2022-08-19T07:24:12;8.77;;;6.22;;
45686;SDS011;31399;51.176;7.776;2022-08-19T07:26:40;6.97;;;5.53;;
45686;SDS011;31399;51.176;7.776;2022-08-19T07:29:08;8.38;;;5.82;;
45686;SDS011;31399;51.176;7.776;2022-08-19T07:31:34;12.50;;;7.13;;
45686;SDS011;31399;51.176;7.776;2022-08-19T07:34:04;10.32;;;6.95;;
45686;SDS011;31399;51.176;7.776;2022-08-19T07:36:34;13.23;;;8.18;;
45686;SDS011;31399;51.176;7.776;2022-08-19T07:39:07;15.07;;;10.07;;
45686;SDS011;31399;51.176;7.776;2022-08-19T07:41:36;13.88;;;9.60;;
45686;SDS011;31399;51.176;7.776;2022-08-19T07:44:04;19.95;;;10.63;;
45686;SDS011;31399;51.176;7.776;2022-08-19T07:46:34;16.75;;;9.90;;
45686;SDS011;31399;51.176;7.776;2022-08-19T07:49:04;16.87;;;10.80;;
45686;SDS011;31399;51.176;7.776;2022-08-19T07:51:32;15.32;;;11.35;;
45686;SDS011;31399;51.176;7.776;2022-08-19T07:54:02;15.23;;;9.43;;
45686;SDS011;31399;51.176;7.776;2022-08-19T07:56:35;21.30;;;11.57;;
45686;SDS011;31399;51.176;7.776;2022-08-19T07:59:02;20.63;;;12.75;;
45686;SDS011;31399;51.176;7.776;2022-08-19T08:01:30;21.27;;;13.48;;
45686;SDS011;31399;51.176;7.776;2022-08-19T08:03:57;25.02;;;16.02;;
45686;SDS011;31399;51.176;7.776;2022-08-19T08:06:42;24.00;;;16.38;;
45686;SDS011;31399;51.176;7.776;2022-08-19T08:09:32;26.58;;;16.73;;
45686;SDS011;31399;51.176;7.776;2022-08-19T08:12:06;23.00;;;15.55;;
45686;SDS011;31399;51.176;7.776;2022-08-19T08:14:59;25.15;;;15.63;;
45686;SDS011;31399;51.176;7.776;2022-08-19T08:17:33;24.02;;;14.70;;
45686;SDS011;31399;51.176;7.776;2022-08-19T08:20:17;19.17;;;13.70;;
45686;SDS011;31399;51.176;7.776;2022-08-19T08:22:44;20.08;;;13.57;;
45686;SDS011;31399;51.176;7.776;2022-08-19T08:25:31;19.77;;;12.82;;
45686;SDS011;31399;51.176;7.776;2022-08-19T08:27:59;21.98;;;14.38;;
45686;SDS011;31399;51.176;7.776;2022-08-19T08:30:27;21.15;;;13.02;;
45686;SDS011;31399;51.176;7.776;2022-08-19T08:32:57;22.63;;;14.32;;
45686;SDS011;31399;51.176;7.776;2022-08-19T08:35:25;18.45;;;13.63;;
45686;SDS011;31399;51.176;7.776;2022-08-19T08:37:52;22.13;;;13.90;;
45686;SDS011;31399;51.176;7.776;2022-08-19T08:40:26;19.40;;;14.10;;
45686;SDS011;31399;51.176;7.776;2022-08-19T08:42:59;22.83;;;14.70;;
45686;SDS011;31399;51.176;7.776;2022-08-19T08:49:35;22.77;;;13.00;;
45686;SDS011;31399;51.176;7.776;2022-08-19T08:52:52;16.75;;;11.35;;
45686;SDS011;31399;51.176;7.776;2022-08-19T08:55:06;18.05;;;11.20;;
45686;SDS011;31399;51.176;7.776;2022-08-19T08:57:38;14.75;;;10.02;;
45686;SDS011;31399;51.176;7.776;2022-08-19T09:00:10;14.48;;;8.60;;
45686;SDS011;31399;51.176;7.776;2022-08-19T09:02:41;9.07;;;6.57;;
45686;SDS011;31399;51.176;7.776;2022-08-19T09:05:09;10.57;;;6.82;;
45686;SDS011;31399;51.176;7.776;2022-08-19T09:10:38;8.85;;;6.72;;
45686;SDS011;31399;51.176;7.776;2022-08-19T09:16:12;8.80;;;6.43;;
45686;SDS011;31399;51.176;7.776;2022-08-19T09:18:58;7.90;;;5.20;;
45686;SDS011;31399;51.176;7.776;2022-08-19T09:21:28;9.65;;;5.90;;
45686;SDS011;31399;51.176;7.776;2022-08-19T09:23:59;9.00;;;6.20;;
45686;SDS011;31399;51.176;7.776;2022-08-19T09:26:30;8.18;;;6.30;;
45686;SDS011;31399;51.176;7.776;2022-08-19T09:29:17;8.85;;;5.30;;
45686;SDS011;31399;51.176;7.776;2022-08-19T09:31:47;8.38;;;5.53;;
45686;SDS011;31399;51.176;7.776;2022-08-19T09:34:14;5.15;;;4.65;;
45686;SDS011;31399;51.176;7.776;2022-08-19T09:36:47;7.30;;;5.82;;
45686;SDS011;31399;51.176;7.776;2022-08-19T09:39:16;6.75;;;4.80;;
45686;SDS011;31399;51.176;7.776;2022-08-19T09:41:43;5.63;;;5.00;;
45686;SDS011;31399;51.176;7.776;2022-08-19T09:46:40;8.95;;;5.32;;
45686;SDS011;31399;51.176;7.776;2022-08-19T09:49:07;5.85;;;5.25;;
45686;SDS011;31399;51.176;7.776;2022-08-19T09:51:33;8.18;;;5.65;;
45686;SDS011;31399;51.176;7.776;2022-08-19T09:54:03;7.50;;;5.10;;
45686;SDS011;31399;51.176;7.776;2022-08-19T09:56:30;7.47;;;5.18;;
45686;SDS011;31399;51.176;7.776;2022-08-19T09:58:59;6.78;;;4.57;;
45686;SDS011;31399;51.176;7.776;2022-08-19T10:01:28;6.70;;;5.03;;
45686;SDS011;31399;51.176;7.776;2022-08-19T10:03:56;6.25;;;4.80;;
45686;SDS011;31399;51.176;7.776;2022-08-19T10:06:24;7.20;;;4.50;;
45686;SDS011;31399;51.176;7.776;2022-08-19T10:09:11;5.50;;;4.38;;
45686;SDS011;31399;51.176;7.776;2022-08-19T10:11:42;5.80;;;5.07;;
45686;SDS011;31399;51.176;7.776;2022-08-19T10:14:20;9.35;;;5.22;;
45686;SDS011;31399;51.176;7.776;2022-08-19T10:16:49;6.65;;;4.80;;
45686;SDS011;31399;51.176;7.776;2022-08-19T10:19:18;8.13;;;4.20;;
45686;SDS011;31399;51.176;7.776;2022-08-19T10:21:51;5.90;;;5.22;;
45686;SDS011;31399;51.176;7.776;2022-08-19T10:24:18;5.00;;;4.25;;
45686;SDS011;31399;51.176;7.776;2022-08-19T10:26:46;5.00;;;3.35;;
45686;SDS011;31399;51.176;7.776;2022-08-19T10:29:22;7.18;;;4.47;;
45686;SDS011;31399;51.176;7.776;2022-08-19T10:32:01;5.07;;;3.58;;
45686;SDS011;31399;51.176;7.776;2022-08-19T10:34:36;5.45;;;4.07;;
45686;SDS011;31399;51.176;7.776;2022-08-19T10:37:14;4.85;;;4.35;;
45686;SDS011;31399;51.176;7.776;2022-08-19T10:39:49;4.82;;;3.58;;
45686;SDS011;31399;51.176;7.776;2022-08-19T10:42:16;4.85;;;3.80;;
45686;SDS011;31399;51.176;7.776;2022-08-19T10:44:44;5.07;;;4.68;;
45686;SDS011;31399;51.176;7.776;2022-08-19T10:47:12;7.65;;;4.10;;
45686;SDS011;31399;51.176;7.776;2022-08-19T10:49:50;5.75;;;3.90;;
45686;SDS011;31399;51.176;7.776;2022-08-19T10:52:37;4.63;;;4.22;;
45686;SDS011;31399;51.176;7.776;2022-08-19T10:55:05;3.90;;;3.60;;
45686;SDS011;31399;51.176;7.776;2022-08-19T10:57:54;7.00;;;3.38;;
45686;SDS011;31399;51.176;7.776;2022-08-19T11:00:28;5.78;;;3.17;;
45686;SDS011;31399;51.176;7.776;2022-08-19T11:02:57;4.90;;;3.45;;
45686;SDS011;31399;51.176;7.776;2022-08-19T11:05:23;4.88;;;3.72;;
45686;SDS011;31399;51.176;7.776;2022-08-19T11:07:50;4.95;;;3.28;;
45686;SDS011;31399;51.176;7.776;2022-08-19T11:10:18;4.78;;;4.30;;
45686;SDS011;31399;51.176;7.776;2022-08-19T11:12:47;5.25;;;4.45;;
45686;SDS011;31399;51.176;7.776;2022-08-19T11:15:14;8.30;;;5.18;;
45686;SDS011;31399;51.176;7.776;2022-08-19T11:17:41;5.78;;;5.28;;
45686;SDS011;31399;51.176;7.776;2022-08-19T11:20:13;5.30;;;4.78;;
45686;SDS011;31399;51.176;7.776;2022-08-19T11:22:41;6.13;;;4.50;;
45686;SDS011;31399;51.176;7.776;2022-08-19T11:25:09;5.07;;;4.57;;
45686;SDS011;31399;51.176;7.776;2022-08-19T11:27:37;5.07;;;4.63;;
45686;SDS011;31399;51.176;7.776;2022-08-19T11:30:05;5.10;;;4.57;;
45686;SDS011;31399;51.176;7.776;2022-08-19T11:32:38;5.50;;;5.10;;
45686;SDS011;31399;51.176;7.776;2022-08-19T11:35:10;6.75;;;4.55;;
45686;SDS011;31399;51.176;7.776;2022-08-19T11:37:37;4.97;;;4.50;;
45686;SDS011;31399;51.176;7.776;2022-08-19T11:40:05;5.28;;;4.88;;
45686;SDS011;31399;51.176;7.776;2022-08-19T11:42:32;5.90;;;5.28;;
45686;SDS011;31399;51.176;7.776;2022-08-19T11:45:17;6.32;;;5.72;;
45686;SDS011;31399;51.176;7.776;2022-08-19T11:47:44;8.10;;;6.22;;
45686;SDS011;31399;51.176;7.776;2022-08-19T11:50:12;6.43;;;5.82;;
45686;SDS011;31399;51.176;7.776;2022-08-19T11:52:39;7.15;;;6.38;;
45686;SDS011;31399;51.176;7.776;2022-08-19T11:55:05;6.93;;;6.20;;
45686;SDS011;31399;51.176;7.776;2022-08-19T11:57:33;7.15;;;5.75;;
45686;SDS011;31399;51.176;7.776;2022-08-19T11:59:59;7.20;;;6.60;;
45686;SDS011;31399;51.176;7.776;2022-08-19T12:02:27;6.65;;;4.88;;
45686;SDS011;31399;51.176;7.776;2022-08-19T12:04:54;8.57;;;7.68;;
45686;SDS011;31399;51.176;7.776;2022-08-19T12:07:20;9.45;;;7.43;;
45686;SDS011;31399;51.176;7.776;2022-08-19T12:09:47;7.20;;;5.10;;
45686;SDS011;31399;51.176;7.776;2022-08-19T12:12:14;11.15;;;8.40;;
45686;SDS011;31399;51.176;7.776;2022-08-19T12:14:40;8.00;;;6.32;;
45686;SDS011;31399;51.176;7.776;2022-08-19T12:17:07;7.22;;;6.50;;
45686;SDS011;31399;51.176;7.776;2022-08-19T12:19:36;7.15;;;5.30;;
45686;SDS011;31399;51.176;7.776;2022-08-19T12:22:03;6.10;;;4.90;;
45686;SDS011;31399;51.176;7.776;2022-08-19T12:24:30;5.80;;;4.60;;
45686;SDS011;31399;51.176;7.776;2022-08-19T12:26:58;4.90;;;4.50;;
45686;SDS011;31399;51.176;7.776;2022-08-19T12:29:28;5.70;;;4.95;;
45686;SDS011;31399;51.176;7.776;2022-08-19T12:31:56;6.05;;;5.43;;
45686;SDS011;31399;51.176;7.776;2022-08-19T12:34:29;6.35;;;5.38;;
45686;SDS011;31399;51.176;7.776;2022-08-19T12:36:57;5.63;;;5.13;;
45686;SDS011;31399;51.176;7.776;2022-08-19T12:39:24;5.30;;;4.78;;
45686;SDS011;31399;51.176;7.776;2022-08-19T12:41:51;6.97;;;5.30;;
45686;SDS011;31399;51.176;7.776;2022-08-19T12:44:20;5.43;;;4.60;;
45686;SDS011;31399;51.176;7.776;2022-08-19T12:46:54;6.13;;;4.70;;
45686;SDS011;31399;51.176;7.776;2022-08-19T12:49:22;5.97;;;5.03;;
45686;SDS011;31399;51.176;7.776;2022-08-19T12:52:10;6.22;;;3.75;;
45686;SDS011;31399;51.176;7.776;2022-08-19T12:54:39;4.88;;;4.35;;
45686;SDS011;31399;51.176;7.776;2022-08-19T12:57:09;4.65;;;4.10;;
45686;SDS011;31399;51.176;7.776;2022-08-19T12:59:36;7.05;;;4.35;;
45686;SDS011;31399;51.176;7.776;2022-08-19T13:02:04;4.90;;;4.45;;
45686;SDS011;31399;51.176;7.776;2022-08-19T13:04:32;7.53;;;3.90;;
45686;SDS011;31399;51.176;7.776;2022-08-19T13:07:02;7.15;;;3.80;;
45686;SDS011;31399;51.176;7.776;2022-08-19T13:09:29;4.38;;;3.97;;
45686;SDS011;31399;51.176;7.776;2022-08-19T13:11:56;4.18;;;3.80;;
45686;SDS011;31399;51.176;7.776;2022-08-19T13:14:22;5.90;;;4.25;;
45686;SDS011;31399;51.176;7.776;2022-08-19T13:16:52;4.43;;;4.03;;
45686;SDS011;31399;51.176;7.776;2022-08-19T13:19:18;4.63;;;3.97;;
45686;SDS011;31399;51.176;7.776;2022-08-19T13:21:49;5.22;;;4.10;;
45686;SDS011;31399;51.176;7.776;2022-08-19T13:24:25;5.68;;;4.32;;
45686;SDS011;31399;51.176;7.776;2022-08-19T13:26:59;4.78;;;4.25;;
45686;SDS011;31399;51.176;7.776;2022-08-19T13:29:26;5.03;;;4.63;;
45686;SDS011;31399;51.176;7.776;2022-08-19T13:32:11;6.47;;;5.88;;
45686;SDS011;31399;51.176;7.776;2022-08-19T13:34:57;7.63;;;4.63;;
45686;SDS011;31399;51.176;7.776;2022-08-19T13:37:23;6.93;;;5.22;;
45686;SDS011;31399;51.176;7.776;2022-08-19T13:40:28;6.18;;;5.57;;
45686;SDS011;31399;51.176;7.776;2022-08-19T13:42:55;6.15;;;5.55;;
45686;SDS011;31399;51.176;7.776;2022-08-19T13:45:23;6.20;;;5.53;;
45686;SDS011;31399;51.176;7.776;2022-08-19T13:47:52;5.78;;;5.18;;
45686;SDS011;31399;51.176;7.776;2022-08-19T13:50:29;5.50;;;5.00;;
45686;SDS011;31399;51.176;7.776;2022-08-19T13:52:57;5.22;;;4.68;;
45686;SDS011;31399;51.176;7.776;2022-08-19T13:55:24;3.72;;;3.42;;
45686;SDS011;31399;51.176;7.776;2022-08-19T13:57:55;4.63;;;4.13;;
45686;SDS011;31399;51.176;7.776;2022-08-19T14:00:23;5.30;;;4.80;;
45686;SDS011;31399;51.176;7.776;2022-08-19T14:02:53;5.20;;;4.70;;
45686;SDS011;31399;51.176;7.776;2022-08-19T14:05:21;5.00;;;4.45;;
45686;SDS011;31399;51.176;7.776;2022-08-19T14:07:48;5.80;;;5.28;;
45686;SDS011;31399;51.176;7.776;2022-08-19T14:10:15;5.30;;;4.75;;
45686;SDS011;31399;51.176;7.776;2022-08-19T14:12:42;7.53;;;5.32;;
45686;SDS011;31399;51.176;7.776;2022-08-19T14:15:09;6.28;;;5.68;;
45686;SDS011;31399;51.176;7.776;2022-08-19T14:17:38;6.65;;;5.53;;
45686;SDS011;31399;51.176;7.776;2022-08-19T14:20:06;6.30;;;5.70;;
45686;SDS011;31399;51.176;7.776;2022-08-19T14:22:37;9.63;;;5.88;;
45686;SDS011;31399;51.176;7.776;2022-08-19T14:25:06;8.27;;;6.43;;
45686;SDS011;31399;51.176;7.776;2022-08-19T14:27:34;6.63;;;5.90;;
45686;SDS011;31399;51.176;7.776;2022-08-19T14:30:02;7.65;;;5.63;;
45686;SDS011;31399;51.176;7.776;2022-08-19T14:32:29;8.13;;;6.40;;
45686;SDS011;31399;51.176;7.776;2022-08-19T14:34:56;6.80;;;5.07;;
45686;SDS011;31399;51.176;7.776;2022-08-19T14:37:22;6.88;;;5.50;;
45686;SDS011;31399;51.176;7.776;2022-08-19T14:39:50;6.88;;;5.70;;
45686;SDS011;31399;51.176;7.776;2022-08-19T14:42:16;5.70;;;4.78;;
45686;SDS011;31399;51.176;7.776;2022-08-19T14:44:43;8.38;;;4.85;;
45686;SDS011;31399;51.176;7.776;2022-08-19T14:47:10;5.80;;;5.20;;
45686;SDS011;31399;51.176;7.776;2022-08-19T14:49:37;8.00;;;5.30;;
45686;SDS011;31399;51.176;7.776;2022-08-19T14:52:12;8.25;;;4.93;;
45686;SDS011;31399;51.176;7.776;2022-08-19T14:54:38;6.38;;;5.13;;
45686;SDS011;31399;51.176;7.776;2022-08-19T14:57:05;5.55;;;4.82;;
45686;SDS011;31399;51.176;7.776;2022-08-19T14:59:32;6.97;;;4.97;;
45686;SDS011;31399;51.176;7.776;2022-08-19T15:02:00;7.82;;;4.60;;
45686;SDS011;31399;51.176;7.776;2022-08-19T15:04:47;6.18;;;4.57;;
45686;SDS011;31399;51.176;7.776;2022-08-19T15:07:24;5.75;;;5.05;;
45686;SDS011;31399;51.176;7.776;2022-08-19T15:09:54;6.70;;;4.82;;